Time;durP1;ratioP1;P1;durP2;ratioP2;P2;SDS_P1;SDS_P2;PMS_P1;PMS_P2;Temp;Humidity;BMP_temperature;BMP_pressure;BME280_temperature;BME280_humidity;BME280_pressure;Samples;Min_cycle;Max_cycle;Signal;HPM_P1;HPM_P2
2023/07/04 00:01:47;;;;;;;4.40;3.07;;;;;;;;;;5041528;28;20620;-79
2023/07/04 00:04:15;;;;;;;5.27;2.93;;;;;;;;;;5020344;28;20671;-78
2023/07/04 00:06:41;;;;;;;5.60;3.00;;;;;;;;;;5039251;28;20212;-78
2023/07/04 00:09:07;;;;;;;4.07;3.00;;;;;;;;;;5048600;28;20618;-78
2023/07/04 00:11:34;;;;;;;4.73;2.97;;;;;;;;;;5041607;28;20214;-79
2023/07/04 00:14:00;;;;;;;6.23;3.30;;;;;;;;;;5046952;28;20186;-78
2023/07/04 00:16:27;;;;;;;5.80;3.13;;;;;;;;;;5044736;28;20213;-79
2023/07/04 00:18:53;;;;;;;5.47;3.10;;;;;;;;;;5055670;28;20182;-79
2023/07/04 00:21:19;;;;;;;4.53;3.17;;;;;;;;;;5039447;28;20186;-79
2023/07/04 00:23:47;;;;;;;6.13;2.83;;;;;;;;;;5057158;28;20676;-78
2023/07/04 00:26:16;;;;;;;4.70;3.03;;;;;;;;;;5040207;28;20198;-79
2023/07/04 00:28:43;;;;;;;4.13;3.07;;;;;;;;;;5056383;28;20181;-78
2023/07/04 00:31:10;;;;;;;5.03;2.90;;;;;;;;;;5040615;28;20174;-79
2023/07/04 00:33:36;;;;;;;4.90;3.13;;;;;;;;;;5039685;28;20522;-78
2023/07/04 00:36:05;;;;;;;3.63;2.73;;;;;;;;;;5051086;28;20202;-79
2023/07/04 00:38:32;;;;;;;3.30;2.77;;;;;;;;;;5028938;28;20190;-79
2023/07/04 00:41:06;;;;;;;6.00;2.90;;;;;;;;;;5056386;28;20711;-79
2023/07/04 00:43:56;;;;;;;3.70;2.80;;;;;;;;;;5037781;28;20626;-79
2023/07/04 00:46:28;;;;;;;3.03;2.70;;;;;;;;;;5020086;28;20251;-78
2023/07/04 00:48:56;;;;;;;5.77;2.93;;;;;;;;;;5038106;28;20264;-79
2023/07/04 00:51:23;;;;;;;3.97;2.90;;;;;;;;;;5035997;28;20289;-78
2023/07/04 00:53:53;;;;;;;3.97;2.67;;;;;;;;;;5035785;28;20190;-79
2023/07/04 00:56:24;;;;;;;3.47;2.90;;;;;;;;;;5020778;28;20210;-79
2023/07/04 00:58:59;;;;;;;3.37;2.50;;;;;;;;;;5020318;28;20193;-78
2023/07/04 01:01:25;;;;;;;4.37;2.80;;;;;;;;;;5051334;28;20494;-79
2023/07/04 01:03:54;;;;;;;3.30;2.50;;;;;;;;;;5036680;28;20188;-79
2023/07/04 01:06:21;;;;;;;2.97;2.67;;;;;;;;;;5052531;28;20210;-79
2023/07/04 01:08:49;;;;;;;3.60;2.90;;;;;;;;;;5037525;28;20177;-79
2023/07/04 01:11:19;;;;;;;3.17;2.37;;;;;;;;;;5034362;28;20240;-79
2023/07/04 01:13:46;;;;;;;3.30;2.87;;;;;;;;;;5054268;28;20185;-79
2023/07/04 01:16:13;;;;;;;3.83;2.87;;;;;;;;;;5055187;28;20194;-78
2023/07/04 01:18:41;;;;;;;2.80;2.60;;;;;;;;;;5056616;28;20177;-79
2023/07/04 01:21:09;;;;;;;4.40;3.17;;;;;;;;;;5050382;28;20201;-78
2023/07/04 01:23:44;;;;;;;3.27;2.70;;;;;;;;;;5043690;28;20181;-79
2023/07/04 01:26:10;;;;;;;3.80;2.80;;;;;;;;;;5056049;28;20292;-78
2023/07/04 01:28:37;;;;;;;2.83;2.60;;;;;;;;;;5020522;28;20213;-79
2023/07/04 01:31:05;;;;;;;5.23;2.83;;;;;;;;;;5056129;28;20194;-78
2023/07/04 01:33:32;;;;;;;5.10;2.97;;;;;;;;;;5035425;28;20657;-78
2023/07/04 01:35:58;;;;;;;2.83;2.40;;;;;;;;;;5052275;28;20205;-78
2023/07/04 01:38:24;;;;;;;3.53;2.70;;;;;;;;;;5034806;28;20181;-78
2023/07/04 01:40:50;;;;;;;2.73;2.53;;;;;;;;;;5032639;28;20201;-79
2023/07/04 01:43:17;;;;;;;3.17;2.60;;;;;;;;;;5033938;28;20190;-79
2023/07/04 01:45:45;;;;;;;3.20;2.50;;;;;;;;;;5033332;28;20209;-79
2023/07/04 01:48:12;;;;;;;2.83;2.50;;;;;;;;;;5016586;28;20185;-79
2023/07/04 01:50:39;;;;;;;3.93;2.60;;;;;;;;;;5051664;28;20667;-78
2023/07/04 01:53:05;;;;;;;3.33;2.87;;;;;;;;;;5032720;28;20205;-79
2023/07/04 01:55:31;;;;;;;3.80;3.00;;;;;;;;;;5034103;28;20258;-79
2023/07/04 01:57:57;;;;;;;3.23;2.93;;;;;;;;;;5052406;28;20669;-78
2023/07/04 02:00:24;;;;;;;2.90;2.50;;;;;;;;;;5035761;28;20209;-79
2023/07/04 02:02:56;;;;;;;2.77;2.57;;;;;;;;;;5034739;28;20263;-79
2023/07/04 02:05:22;;;;;;;3.53;2.53;;;;;;;;;;5016893;28;20220;-78
2023/07/04 02:07:48;;;;;;;3.37;2.70;;;;;;;;;;5017014;28;20672;-79
2023/07/04 02:10:14;;;;;;;4.40;2.80;;;;;;;;;;5032710;28;20275;-79
2023/07/04 02:12:40;;;;;;;3.63;2.80;;;;;;;;;;5034727;28;20202;-79
2023/07/04 02:15:08;;;;;;;4.73;2.90;;;;;;;;;;5017983;28;20219;-79
2023/07/04 02:17:35;;;;;;;4.80;2.70;;;;;;;;;;5017727;28;20259;-79
2023/07/04 02:20:01;;;;;;;2.80;2.60;;;;;;;;;;5020317;28;20212;-79
2023/07/04 02:22:27;;;;;;;3.87;2.57;;;;;;;;;;5053234;28;20239;-79
2023/07/04 02:24:53;;;;;;;3.17;2.50;;;;;;;;;;5034448;28;20794;-79
2023/07/04 02:27:19;;;;;;;2.97;2.63;;;;;;;;;;5036417;28;20213;-79
2023/07/04 02:29:48;;;;;;;5.43;3.00;;;;;;;;;;5060695;28;20186;-79
2023/07/04 02:32:15;;;;;;;3.67;2.70;;;;;;;;;;5032991;28;22372;-79
2023/07/04 02:34:42;;;;;;;3.57;2.73;;;;;;;;;;5033322;28;20194;-78
2023/07/04 02:37:10;;;;;;;3.60;3.00;;;;;;;;;;5035713;28;20225;-78
2023/07/04 02:39:36;;;;;;;4.20;2.90;;;;;;;;;;5019130;28;20288;-79
2023/07/04 02:42:04;;;;;;;4.77;3.10;;;;;;;;;;5053466;28;20623;-79
2023/07/04 02:44:31;;;;;;;3.97;2.67;;;;;;;;;;5033812;28;20705;-79
2023/07/04 02:46:58;;;;;;;3.10;2.60;;;;;;;;;;5018672;28;20254;-78
2023/07/04 02:49:24;;;;;;;4.83;2.80;;;;;;;;;;5052152;28;20235;-79
2023/07/04 02:51:50;;;;;;;3.53;2.80;;;;;;;;;;5046418;28;20216;-79
2023/07/04 02:54:17;;;;;;;3.23;2.93;;;;;;;;;;5033977;28;20265;-78
2023/07/04 02:56:44;;;;;;;2.80;2.50;;;;;;;;;;5052115;28;20266;-79
2023/07/04 02:59:10;;;;;;;4.43;2.90;;;;;;;;;;5034432;28;20178;-79
2023/07/04 03:01:36;;;;;;;3.00;2.70;;;;;;;;;;5017900;28;20224;-79
2023/07/04 03:04:03;;;;;;;4.30;2.80;;;;;;;;;;5030191;28;20208;-79
2023/07/04 03:06:29;;;;;;;5.33;2.83;;;;;;;;;;5018099;28;20288;-79
2023/07/04 03:08:56;;;;;;;3.10;2.80;;;;;;;;;;5019239;28;20240;-79
2023/07/04 03:11:24;;;;;;;5.87;2.80;;;;;;;;;;5034015;28;20200;-79
2023/07/04 03:13:51;;;;;;;4.07;2.73;;;;;;;;;;5034335;28;20180;-79
2023/07/04 03:16:17;;;;;;;4.00;2.70;;;;;;;;;;5030386;28;20210;-80
2023/07/04 03:18:45;;;;;;;4.60;2.70;;;;;;;;;;5029341;28;20182;-79
2023/07/04 03:21:12;;;;;;;3.47;2.83;;;;;;;;;;5031636;28;20178;-79
2023/07/04 03:23:38;;;;;;;4.03;2.93;;;;;;;;;;5038637;28;20189;-79
2023/07/04 03:26:06;;;;;;;3.07;2.60;;;;;;;;;;5035389;28;20213;-79
2023/07/04 03:28:32;;;;;;;4.30;3.17;;;;;;;;;;5036504;28;20241;-79
2023/07/04 03:31:00;;;;;;;4.57;2.90;;;;;;;;;;5037343;28;20202;-79
2023/07/04 03:33:26;;;;;;;3.90;2.73;;;;;;;;;;5054764;28;20210;-79
2023/07/04 03:35:52;;;;;;;3.37;2.57;;;;;;;;;;5037095;28;20297;-78
2023/07/04 03:38:18;;;;;;;3.07;2.60;;;;;;;;;;5030240;28;20230;-79
2023/07/04 03:40:44;;;;;;;3.50;2.83;;;;;;;;;;5041983;28;20200;-78
2023/07/04 03:43:11;;;;;;;4.37;2.93;;;;;;;;;;5035145;28;20641;-79
2023/07/04 03:45:37;;;;;;;3.10;2.80;;;;;;;;;;5056501;28;20292;-78
2023/07/04 03:48:03;;;;;;;3.37;2.80;;;;;;;;;;5034813;28;20265;-78
2023/07/04 03:50:29;;;;;;;4.63;3.13;;;;;;;;;;5038450;28;20193;-79
2023/07/04 03:52:55;;;;;;;4.63;3.40;;;;;;;;;;5054521;28;20229;-78
2023/07/04 03:55:21;;;;;;;3.90;3.20;;;;;;;;;;5035438;28;20689;-78
2023/07/04 03:57:49;;;;;;;5.33;3.20;;;;;;;;;;5035645;28;20190;-79
2023/07/04 04:00:15;;;;;;;3.23;2.93;;;;;;;;;;5033590;28;20186;-78
2023/07/04 04:02:59;;;;;;;3.73;2.53;;;;;;;;;;5035482;28;20512;-78
2023/07/04 04:05:26;;;;;;;4.33;3.10;;;;;;;;;;5036824;28;20202;-79
2023/07/04 04:07:52;;;;;;;4.33;3.27;;;;;;;;;;5055589;28;20261;-78
2023/07/04 04:10:18;;;;;;;3.40;3.10;;;;;;;;;;5051869;28;20273;-79
2023/07/04 04:12:44;;;;;;;3.50;2.97;;;;;;;;;;5039550;28;20213;-78
2023/07/04 04:15:11;;;;;;;4.17;3.07;;;;;;;;;;5038072;28;20186;-78
2023/07/04 04:17:37;;;;;;;3.90;3.03;;;;;;;;;;5055957;28;20758;-78
2023/07/04 04:20:06;;;;;;;4.37;3.07;;;;;;;;;;5038205;28;20526;-78
2023/07/04 04:22:33;;;;;;;4.33;3.23;;;;;;;;;;5054801;28;20200;-78
2023/07/04 04:24:59;;;;;;;4.30;3.17;;;;;;;;;;5051896;28;20554;-78
2023/07/04 04:27:30;;;;;;;4.77;2.57;;;;;;;;;;5054534;28;20252;-79
2023/07/04 04:29:57;;;;;;;4.20;3.17;;;;;;;;;;5054882;28;20182;-78
2023/07/04 04:32:23;;;;;;;3.60;2.60;;;;;;;;;;5052549;28;20248;-79
2023/07/04 04:34:49;;;;;;;4.70;3.13;;;;;;;;;;5050100;28;20189;-79
2023/07/04 04:37:16;;;;;;;3.67;2.97;;;;;;;;;;5032766;28;20201;-78
2023/07/04 04:39:43;;;;;;;3.60;2.90;;;;;;;;;;5052848;28;20181;-79
2023/07/04 04:42:13;;;;;;;4.27;3.33;;;;;;;;;;5018852;28;20182;-78
2023/07/04 04:44:40;;;;;;;4.83;3.27;;;;;;;;;;5016557;28;20194;-78
2023/07/04 04:47:07;;;;;;;4.17;3.17;;;;;;;;;;5057800;28;20197;-80
2023/07/04 04:49:33;;;;;;;4.53;3.30;;;;;;;;;;5056813;28;20193;-78
2023/07/04 04:51:59;;;;;;;4.17;3.00;;;;;;;;;;5053936;28;20617;-80
2023/07/04 04:54:25;;;;;;;3.43;3.13;;;;;;;;;;5036885;28;20222;-79
2023/07/04 04:56:52;;;;;;;3.63;3.20;;;;;;;;;;5050160;28;20285;-80
2023/07/04 04:59:18;;;;;;;3.73;3.07;;;;;;;;;;5030460;28;20185;-80
2023/07/04 05:01:45;;;;;;;4.03;3.10;;;;;;;;;;5051285;28;20203;-79
2023/07/04 05:04:11;;;;;;;4.73;3.53;;;;;;;;;;5049603;28;20277;-80
2023/07/04 05:06:37;;;;;;;3.57;3.27;;;;;;;;;;5034379;28;20212;-79
2023/07/04 05:09:04;;;;;;;4.50;3.03;;;;;;;;;;5032605;28;20189;-80
2023/07/04 05:11:32;;;;;;;5.70;3.40;;;;;;;;;;5051763;28;20178;-76
2023/07/04 05:13:58;;;;;;;4.60;3.30;;;;;;;;;;5029358;28;20185;-76
2023/07/04 05:16:24;;;;;;;5.03;3.50;;;;;;;;;;5032079;28;20751;-77
2023/07/04 05:18:51;;;;;;;6.43;3.50;;;;;;;;;;5049255;28;20243;-78
2023/07/04 05:21:19;;;;;;;5.00;3.53;;;;;;;;;;5045042;28;20632;-77
2023/07/04 05:23:46;;;;;;;5.13;3.43;;;;;;;;;;5041876;28;20193;-78
2023/07/04 05:26:14;;;;;;;4.33;3.13;;;;;;;;;;5046962;28;20221;-77
2023/07/04 05:28:40;;;;;;;5.60;3.40;;;;;;;;;;5048854;28;20190;-77
2023/07/04 05:31:08;;;;;;;4.90;3.50;;;;;;;;;;5046144;28;20185;-77
2023/07/04 05:33:35;;;;;;;3.97;3.03;;;;;;;;;;5019355;28;20206;-77
2023/07/04 05:36:08;;;;;;;6.20;3.40;;;;;;;;;;5051527;28;20190;-77
2023/07/04 05:38:35;;;;;;;4.70;3.53;;;;;;;;;;5050666;28;20189;-77
2023/07/04 05:41:02;;;;;;;5.97;4.00;;;;;;;;;;5055161;28;20186;-78
2023/07/04 05:43:28;;;;;;;4.20;3.53;;;;;;;;;;5051664;28;20174;-77
2023/07/04 05:45:55;;;;;;;6.20;3.70;;;;;;;;;;5049524;28;20217;-77
2023/07/04 05:48:21;;;;;;;6.67;4.10;;;;;;;;;;5053824;28;20205;-78
2023/07/04 05:50:51;;;;;;;8.77;4.47;;;;;;;;;;5045940;28;20854;-77
2023/07/04 05:53:18;;;;;;;7.63;3.77;;;;;;;;;;5028852;28;20229;-77
2023/07/04 05:55:44;;;;;;;5.77;4.00;;;;;;;;;;5050146;28;20213;-78
2023/07/04 05:58:10;;;;;;;5.10;3.70;;;;;;;;;;5050837;28;20212;-77
2023/07/04 06:00:36;;;;;;;4.43;3.60;;;;;;;;;;5051117;28;20642;-77
2023/07/04 06:03:03;;;;;;;6.07;3.77;;;;;;;;;;5050615;28;20213;-77
2023/07/04 06:05:29;;;;;;;5.73;3.40;;;;;;;;;;5049632;28;20209;-77
2023/07/04 06:07:56;;;;;;;9.90;4.00;;;;;;;;;;5032119;28;20280;-77
2023/07/04 06:10:23;;;;;;;6.70;4.10;;;;;;;;;;5050623;28;20204;-77
2023/07/04 06:12:50;;;;;;;6.40;4.20;;;;;;;;;;5048164;28;20212;-77
2023/07/04 06:15:16;;;;;;;5.07;3.50;;;;;;;;;;5028504;28;20189;-76
2023/07/04 06:17:43;;;;;;;8.27;4.20;;;;;;;;;;5050087;28;20820;-77
2023/07/04 06:20:11;;;;;;;7.63;3.80;;;;;;;;;;5051679;28;20185;-77
2023/07/04 06:22:37;;;;;;;6.23;3.60;;;;;;;;;;5048233;28;20186;-78
2023/07/04 06:25:04;;;;;;;9.60;3.90;;;;;;;;;;5051990;28;20192;-82
2023/07/04 06:27:31;;;;;;;9.47;4.03;;;;;;;;;;5051269;28;20186;-77
2023/07/04 06:29:57;;;;;;;7.27;3.93;;;;;;;;;;5050604;28;20197;-78
2023/07/04 06:32:23;;;;;;;9.17;4.27;;;;;;;;;;5048924;28;20241;-78
2023/07/04 06:34:49;;;;;;;7.60;3.87;;;;;;;;;;5044611;28;20189;-81
2023/07/04 06:37:15;;;;;;;9.37;4.27;;;;;;;;;;5051646;28;20201;-80
2023/07/04 06:39:42;;;;;;;7.07;3.87;;;;;;;;;;5049417;28;20235;-84
2023/07/04 06:42:08;;;;;;;8.57;4.03;;;;;;;;;;5051065;28;20243;-80
2023/07/04 06:44:44;;;;;;;8.63;4.23;;;;;;;;;;5033745;28;20649;-78
2023/07/04 06:47:12;;;;;;;9.77;4.30;;;;;;;;;;5049398;28;20209;-79
2023/07/04 06:49:38;;;;;;;8.27;4.20;;;;;;;;;;5052359;28;20705;-79
2023/07/04 06:52:04;;;;;;;8.63;3.93;;;;;;;;;;5052016;28;20345;-79
2023/07/04 06:54:30;;;;;;;10.57;3.83;;;;;;;;;;5048618;28;20267;-79
2023/07/04 06:56:56;;;;;;;6.20;3.70;;;;;;;;;;5021976;28;20209;-78
2023/07/04 06:59:23;;;;;;;6.47;3.57;;;;;;;;;;5022812;28;20262;-78
2023/07/04 07:01:49;;;;;;;9.00;3.73;;;;;;;;;;5026832;28;20212;-78
2023/07/04 07:04:16;;;;;;;7.47;3.53;;;;;;;;;;5039179;28;20202;-78
2023/07/04 07:06:43;;;;;;;7.77;3.93;;;;;;;;;;5025544;28;20209;-78
2023/07/04 07:09:09;;;;;;;7.70;3.83;;;;;;;;;;5041788;28;20565;-79
2023/07/04 07:11:35;;;;;;;6.47;3.73;;;;;;;;;;5044328;28;20185;-79
2023/07/04 07:14:02;;;;;;;6.03;3.50;;;;;;;;;;5045143;28;20182;-78
2023/07/04 07:16:28;;;;;;;8.10;4.30;;;;;;;;;;5044115;28;20207;-78
2023/07/04 07:18:55;;;;;;;5.80;3.37;;;;;;;;;;5043997;28;20587;-78
2023/07/04 07:21:23;;;;;;;8.20;3.50;;;;;;;;;;5044711;28;20230;-77
2023/07/04 07:23:50;;;;;;;5.10;3.23;;;;;;;;;;5050644;28;20185;-79
2023/07/04 07:26:18;;;;;;;6.23;3.43;;;;;;;;;;5046587;28;20193;-79
2023/07/04 07:28:44;;;;;;;7.57;3.50;;;;;;;;;;5034573;28;20186;-76
2023/07/04 07:31:19;;;;;;;7.23;3.60;;;;;;;;;;5031418;28;20532;-79
2023/07/04 07:33:46;;;;;;;5.63;3.40;;;;;;;;;;5031753;28;20197;-79
2023/07/04 07:36:18;;;;;;;5.80;3.53;;;;;;;;;;5041839;28;20835;-79
2023/07/04 07:38:44;;;;;;;6.40;3.80;;;;;;;;;;5047292;28;20268;-79
2023/07/04 07:41:11;;;;;;;7.83;3.90;;;;;;;;;;5031582;28;20181;-79
2023/07/04 07:43:38;;;;;;;7.17;3.70;;;;;;;;;;5041336;28;20182;-79
2023/07/04 07:46:07;;;;;;;5.77;3.30;;;;;;;;;;5051400;28;20190;-77
2023/07/04 07:48:33;;;;;;;7.63;4.13;;;;;;;;;;5025495;28;20300;-78
2023/07/04 07:51:00;;;;;;;7.73;4.17;;;;;;;;;;5031621;28;20181;-77
2023/07/04 07:53:26;;;;;;;7.90;3.80;;;;;;;;;;5036653;28;20770;-78
2023/07/04 07:55:52;;;;;;;8.37;3.73;;;;;;;;;;5048136;28;20221;-78
2023/07/04 07:58:18;;;;;;;6.63;3.63;;;;;;;;;;5049597;28;20209;-78
2023/07/04 08:00:44;;;;;;;10.07;3.57;;;;;;;;;;5048866;28;20241;-78
2023/07/04 08:03:11;;;;;;;7.43;3.90;;;;;;;;;;5052149;28;20193;-78
2023/07/04 08:05:41;;;;;;;6.47;3.33;;;;;;;;;;5044362;28;20205;-77
2023/07/04 08:08:07;;;;;;;6.60;3.80;;;;;;;;;;5048152;28;20192;-78
2023/07/04 08:10:37;;;;;;;9.10;3.87;;;;;;;;;;5042342;28;20190;-77
2023/07/04 08:13:03;;;;;;;5.80;3.70;;;;;;;;;;5024890;28;20220;-77
2023/07/04 08:15:30;;;;;;;6.53;3.40;;;;;;;;;;5045927;28;20228;-77
2023/07/04 08:17:56;;;;;;;5.90;4.03;;;;;;;;;;5047319;28;20725;-77
2023/07/04 08:20:23;;;;;;;5.23;3.60;;;;;;;;;;5048733;28;20217;-77
2023/07/04 08:22:49;;;;;;;9.80;4.20;;;;;;;;;;5050289;28;20277;-77
2023/07/04 08:25:15;;;;;;;6.97;3.93;;;;;;;;;;5029892;28;20193;-77
2023/07/04 08:27:41;;;;;;;8.20;3.97;;;;;;;;;;5046782;28;20308;-78
2023/07/04 08:30:08;;;;;;;7.40;3.90;;;;;;;;;;5034284;28;20185;-77
2023/07/04 08:32:34;;;;;;;7.03;4.20;;;;;;;;;;5045326;28;20219;-77
2023/07/04 08:35:01;;;;;;;6.47;3.70;;;;;;;;;;5051879;28;20735;-78
2023/07/04 08:37:27;;;;;;;7.10;3.80;;;;;;;;;;5033835;28;20266;-77
2023/07/04 08:39:53;;;;;;;6.67;3.60;;;;;;;;;;5053010;28;20203;-77
2023/07/04 08:42:22;;;;;;;6.53;3.77;;;;;;;;;;5049137;28;20277;-77
2023/07/04 08:44:50;;;;;;;4.67;3.60;;;;;;;;;;5048897;28;20604;-78
2023/07/04 08:47:25;;;;;;;5.13;3.60;;;;;;;;;;5048529;28;20247;-77
2023/07/04 08:50:13;;;;;;;7.13;3.80;;;;;;;;;;5052389;28;20200;-77
2023/07/04 08:52:40;;;;;;;5.63;3.70;;;;;;;;;;5019860;28;20233;-77
2023/07/04 08:55:09;;;;;;;6.50;3.93;;;;;;;;;;5014235;28;20194;-77
2023/07/04 08:57:43;;;;;;;7.50;4.10;;;;;;;;;;5048993;28;20272;-77
2023/07/04 09:00:17;;;;;;;6.70;3.80;;;;;;;;;;5051987;28;20255;-77
2023/07/04 09:02:49;;;;;;;8.33;4.13;;;;;;;;;;5053724;28;20202;-77
2023/07/04 09:05:30;;;;;;;7.43;4.07;;;;;;;;;;5050557;28;20606;-77
2023/07/04 09:07:56;;;;;;;8.57;4.60;;;;;;;;;;5049290;28;20189;-77
2023/07/04 09:10:40;;;;;;;5.87;3.77;;;;;;;;;;5047645;28;21043;-77
2023/07/04 09:13:09;;;;;;;7.77;3.77;;;;;;;;;;5049797;28;20217;-78
2023/07/04 09:15:36;;;;;;;6.53;3.70;;;;;;;;;;5051724;28;20316;-77
2023/07/04 09:18:07;;;;;;;5.53;3.70;;;;;;;;;;5050076;28;20180;-77
2023/07/04 09:20:36;;;;;;;7.33;4.03;;;;;;;;;;5048375;28;20292;-77
2023/07/04 09:23:06;;;;;;;7.23;4.20;;;;;;;;;;5049951;28;20178;-77
2023/07/04 09:25:32;;;;;;;5.67;3.70;;;;;;;;;;5051768;28;20206;-77
2023/07/04 09:27:58;;;;;;;6.93;3.70;;;;;;;;;;5048177;28;20181;-77
2023/07/04 09:30:25;;;;;;;6.40;3.47;;;;;;;;;;5056168;28;20239;-77
2023/07/04 09:32:51;;;;;;;6.63;4.03;;;;;;;;;;5052455;28;20288;-77
2023/07/04 09:35:18;;;;;;;5.73;4.00;;;;;;;;;;5051103;28;20205;-77
2023/07/04 09:37:56;;;;;;;4.83;3.70;;;;;;;;;;5027002;28;20190;-77
2023/07/04 09:40:39;;;;;;;5.40;3.87;;;;;;;;;;5050354;28;20173;-77
2023/07/04 09:43:07;;;;;;;5.37;3.70;;;;;;;;;;5048431;28;20186;-77
2023/07/04 09:45:34;;;;;;;5.70;4.27;;;;;;;;;;5049280;28;20205;-78
2023/07/04 09:48:01;;;;;;;8.53;4.33;;;;;;;;;;5050988;28;20193;-77
2023/07/04 09:50:30;;;;;;;5.30;4.10;;;;;;;;;;5050134;28;20718;-77
2023/07/04 09:53:10;;;;;;;4.73;3.90;;;;;;;;;;5046507;28;20218;-77
2023/07/04 09:55:37;;;;;;;4.33;3.87;;;;;;;;;;5046412;28;21403;-77
2023/07/04 09:58:17;;;;;;;6.23;4.10;;;;;;;;;;5048380;28;20175;-77
2023/07/04 10:00:44;;;;;;;5.60;3.37;;;;;;;;;;5047394;28;20253;-77
2023/07/04 10:03:10;;;;;;;5.97;3.87;;;;;;;;;;5048595;28;20197;-77
2023/07/04 10:05:37;;;;;;;5.33;4.20;;;;;;;;;;5048816;28;20275;-77
2023/07/04 10:08:05;;;;;;;5.80;4.17;;;;;;;;;;5045557;28;20198;-77
2023/07/04 10:10:44;;;;;;;4.97;3.83;;;;;;;;;;5044218;28;20226;-77
2023/07/04 10:13:12;;;;;;;4.80;3.63;;;;;;;;;;5044696;28;20212;-77
2023/07/04 10:15:40;;;;;;;10.80;4.20;;;;;;;;;;5051129;28;20206;-77
2023/07/04 10:18:07;;;;;;;6.33;4.40;;;;;;;;;;5041176;28;20206;-78
2023/07/04 10:20:39;;;;;;;5.20;4.00;;;;;;;;;;5045421;28;20197;-77
2023/07/04 10:23:06;;;;;;;5.87;4.10;;;;;;;;;;5046106;28;20187;-77
2023/07/04 10:25:33;;;;;;;5.07;4.23;;;;;;;;;;5010637;28;20215;-77
2023/07/04 10:28:19;;;;;;;7.47;4.23;;;;;;;;;;5046452;28;20183;-77
2023/07/04 10:30:49;;;;;;;4.60;4.10;;;;;;;;;;5043949;28;20212;-77
2023/07/04 10:33:20;;;;;;;5.93;4.37;;;;;;;;;;5026734;28;20206;-77
2023/07/04 10:35:47;;;;;;;5.23;4.30;;;;;;;;;;5044663;28;20213;-77
2023/07/04 10:38:34;;;;;;;6.17;4.80;;;;;;;;;;5048192;28;20683;-78
2023/07/04 10:41:07;;;;;;;5.77;3.97;;;;;;;;;;5006959;28;20584;-79
2023/07/04 10:43:36;;;;;;;6.43;4.63;;;;;;;;;;5014225;28;20194;-79
2023/07/04 10:46:04;;;;;;;6.93;4.90;;;;;;;;;;5047917;28;20338;-75
2023/07/04 10:48:34;;;;;;;5.97;4.63;;;;;;;;;;5049605;28;20264;-76
2023/07/04 10:51:09;;;;;;;6.33;4.50;;;;;;;;;;5045882;28;20307;-75
2023/07/04 10:53:36;;;;;;;5.60;4.57;;;;;;;;;;5048727;28;20205;-75
2023/07/04 10:56:06;;;;;;;6.80;4.77;;;;;;;;;;5047618;28;20570;-74
2023/07/04 10:58:34;;;;;;;5.13;4.63;;;;;;;;;;5046870;28;20700;-74
2023/07/04 11:01:03;;;;;;;5.63;4.60;;;;;;;;;;5046649;28;20633;-75
2023/07/04 11:03:39;;;;;;;5.93;4.70;;;;;;;;;;5045402;28;20706;-76
2023/07/04 11:06:08;;;;;;;7.40;4.70;;;;;;;;;;5046771;28;20201;-74
2023/07/04 11:08:37;;;;;;;5.20;4.60;;;;;;;;;;5047104;28;20303;-79
2023/07/04 11:11:09;;;;;;;5.33;4.77;;;;;;;;;;5049114;28;20571;-77
2023/07/04 11:13:40;;;;;;;7.27;4.83;;;;;;;;;;5030811;28;20279;-78
2023/07/04 11:16:07;;;;;;;6.30;4.67;;;;;;;;;;5031238;28;20553;-78
2023/07/04 11:18:39;;;;;;;6.60;5.17;;;;;;;;;;5048801;28;20737;-78
2023/07/04 11:21:08;;;;;;;7.10;4.80;;;;;;;;;;5048853;28;20220;-78
2023/07/04 11:23:54;;;;;;;5.77;4.57;;;;;;;;;;5047166;28;20653;-78
2023/07/04 11:26:21;;;;;;;5.67;4.47;;;;;;;;;;5049697;28;20189;-78
2023/07/04 11:29:06;;;;;;;5.17;4.67;;;;;;;;;;5046936;28;20186;-78
2023/07/04 11:31:34;;;;;;;6.37;4.73;;;;;;;;;;5042933;28;20185;-72
2023/07/04 11:34:03;;;;;;;5.00;4.50;;;;;;;;;;5046572;28;20200;-73
2023/07/04 11:36:34;;;;;;;5.73;4.47;;;;;;;;;;5046713;28;20206;-73
2023/07/04 11:39:03;;;;;;;5.17;4.70;;;;;;;;;;5048812;28;20223;-75
2023/07/04 11:41:32;;;;;;;4.73;4.23;;;;;;;;;;5048100;28;20265;-74
2023/07/04 11:44:00;;;;;;;5.80;4.33;;;;;;;;;;5042518;28;20535;-75
2023/07/04 11:46:28;;;;;;;4.80;4.20;;;;;;;;;;5047057;28;20664;-75
2023/07/04 11:48:56;;;;;;;7.43;4.73;;;;;;;;;;5046368;28;20215;-75
2023/07/04 11:51:24;;;;;;;5.10;4.60;;;;;;;;;;5045805;28;20179;-75
2023/07/04 11:53:57;;;;;;;5.13;4.40;;;;;;;;;;5048624;28;20268;-75
2023/07/04 11:56:26;;;;;;;5.53;4.57;;;;;;;;;;5042853;28;20213;-74
2023/07/04 11:59:11;;;;;;;8.07;4.73;;;;;;;;;;5053335;28;20211;-74
2023/07/04 12:01:49;;;;;;;4.80;4.33;;;;;;;;;;5048923;28;20276;-73
2023/07/04 12:04:16;;;;;;;5.50;4.73;;;;;;;;;;5033493;28;20192;-73
2023/07/04 12:07:01;;;;;;;5.03;4.53;;;;;;;;;;5048453;28;20199;-74
2023/07/04 12:09:30;;;;;;;5.97;4.70;;;;;;;;;;5051404;28;22097;-73
2023/07/04 12:11:57;;;;;;;6.00;4.23;;;;;;;;;;5055060;28;20272;-73
2023/07/04 12:14:24;;;;;;;6.23;4.20;;;;;;;;;;5051691;28;20185;-76
2023/07/04 12:16:50;;;;;;;5.30;4.00;;;;;;;;;;5037979;28;20202;-76
2023/07/04 12:19:17;;;;;;;4.70;4.23;;;;;;;;;;5048155;28;20209;-76
2023/07/04 12:21:46;;;;;;;5.40;4.50;;;;;;;;;;5050927;28;20194;-75
2023/07/04 12:24:15;;;;;;;4.80;4.30;;;;;;;;;;5052804;28;20225;-75
2023/07/04 12:26:43;;;;;;;4.57;4.00;;;;;;;;;;5054243;28;20276;-75
2023/07/04 12:29:09;;;;;;;5.83;4.10;;;;;;;;;;5051662;28;20186;-76
2023/07/04 12:31:36;;;;;;;4.93;3.83;;;;;;;;;;5033084;28;20274;-75
2023/07/04 12:34:04;;;;;;;4.80;4.30;;;;;;;;;;5046887;28;20182;-76
2023/07/04 12:36:34;;;;;;;6.30;4.57;;;;;;;;;;5045714;28;20197;-76
2023/07/04 12:39:04;;;;;;;4.83;3.80;;;;;;;;;;5038108;28;20617;-76
2023/07/04 12:41:31;;;;;;;4.57;3.83;;;;;;;;;;5054562;28;20324;-76
2023/07/04 12:44:04;;;;;;;6.00;3.80;;;;;;;;;;5052238;28;20186;-76
2023/07/04 12:46:32;;;;;;;4.73;4.00;;;;;;;;;;5057857;28;20209;-76
2023/07/04 12:48:59;;;;;;;3.90;3.50;;;;;;;;;;5054598;28;20657;-76
2023/07/04 12:51:27;;;;;;;5.77;3.83;;;;;;;;;;5051728;28;20646;-76
2023/07/04 12:53:54;;;;;;;5.30;4.00;;;;;;;;;;5051618;28;20210;-76
2023/07/04 12:56:20;;;;;;;4.93;3.73;;;;;;;;;;5050090;28;20213;-77
2023/07/04 12:58:47;;;;;;;6.87;3.80;;;;;;;;;;5051986;28;20189;-76
2023/07/04 13:01:20;;;;;;;6.10;4.03;;;;;;;;;;5035401;28;20779;-77
2023/07/04 13:03:47;;;;;;;6.90;4.33;;;;;;;;;;5032880;28;20183;-76
2023/07/04 13:06:18;;;;;;;4.87;4.37;;;;;;;;;;5048929;28;20688;-77
2023/07/04 13:08:53;;;;;;;4.70;4.20;;;;;;;;;;5049814;28;20173;-76
2023/07/04 13:11:23;;;;;;;4.73;3.87;;;;;;;;;;5052310;28;20187;-77
2023/07/04 13:13:50;;;;;;;5.37;4.00;;;;;;;;;;5047847;28;20208;-76
2023/07/04 13:16:16;;;;;;;5.00;3.77;;;;;;;;;;5043771;28;20195;-76
2023/07/04 13:18:46;;;;;;;4.40;3.80;;;;;;;;;;5047658;28;20211;-75
2023/07/04 13:21:25;;;;;;;5.23;4.03;;;;;;;;;;5049290;28;20178;-77
2023/07/04 13:23:51;;;;;;;6.93;4.10;;;;;;;;;;5047839;28;20617;-77
2023/07/04 13:26:19;;;;;;;4.80;4.03;;;;;;;;;;5041789;28;20207;-76
2023/07/04 13:28:47;;;;;;;5.23;4.10;;;;;;;;;;5046615;28;20193;-76
2023/07/04 13:31:29;;;;;;;6.50;4.23;;;;;;;;;;5054899;28;20214;-77
2023/07/04 13:33:56;;;;;;;5.80;4.23;;;;;;;;;;5052084;28;20282;-77
2023/07/04 13:36:32;;;;;;;6.70;4.07;;;;;;;;;;5047322;28;20295;-77
2023/07/04 13:38:59;;;;;;;5.20;3.87;;;;;;;;;;5050808;28;20174;-76
2023/07/04 13:41:25;;;;;;;7.93;3.67;;;;;;;;;;5049634;28;20206;-77
2023/07/04 13:43:51;;;;;;;5.67;3.90;;;;;;;;;;5046236;28;20180;-76
2023/07/04 13:46:18;;;;;;;6.33;3.70;;;;;;;;;;5033741;28;20210;-76
2023/07/04 13:48:47;;;;;;;7.03;3.90;;;;;;;;;;5050382;28;20185;-76
2023/07/04 13:51:13;;;;;;;5.43;4.00;;;;;;;;;;5044364;28;20426;-76
2023/07/04 13:53:39;;;;;;;13.70;3.70;;;;;;;;;;5042560;28;20235;-76
2023/07/04 13:56:05;;;;;;;4.63;3.90;;;;;;;;;;5049143;28;20230;-76
2023/07/04 13:58:33;;;;;;;5.33;3.87;;;;;;;;;;5047985;28;20191;-76
2023/07/04 14:01:00;;;;;;;5.27;3.80;;;;;;;;;;5046955;28;20282;-76
2023/07/04 14:03:26;;;;;;;4.97;4.10;;;;;;;;;;5048439;28;20208;-76
2023/07/04 14:05:52;;;;;;;5.67;4.13;;;;;;;;;;5040532;28;20639;-76
2023/07/04 14:08:19;;;;;;;5.97;3.87;;;;;;;;;;5042628;28;20195;-76
2023/07/04 14:10:45;;;;;;;5.23;3.83;;;;;;;;;;5043693;28;20528;-76
2023/07/04 14:13:11;;;;;;;4.47;4.07;;;;;;;;;;5040059;28;20330;-76
2023/07/04 14:15:37;;;;;;;4.40;4.00;;;;;;;;;;5038318;28;20683;-76
2023/07/04 14:18:03;;;;;;;5.63;4.30;;;;;;;;;;5039919;28;20194;-76
2023/07/04 14:20:30;;;;;;;5.47;4.30;;;;;;;;;;5024261;28;20185;-75
2023/07/04 14:22:56;;;;;;;4.30;3.83;;;;;;;;;;5046018;28;20187;-76
2023/07/04 14:25:22;;;;;;;4.13;3.73;;;;;;;;;;5022408;28;20583;-75
2023/07/04 14:27:49;;;;;;;4.47;3.73;;;;;;;;;;5049624;28;20684;-78
2023/07/04 14:30:15;;;;;;;5.27;3.90;;;;;;;;;;5032050;28;20237;-78
2023/07/04 14:32:41;;;;;;;4.93;4.30;;;;;;;;;;5046083;28;20307;-77
2023/07/04 14:35:07;;;;;;;5.23;4.00;;;;;;;;;;5044120;28;20666;-76
2023/07/04 14:37:34;;;;;;;4.97;3.70;;;;;;;;;;5045194;28;20178;-76
2023/07/04 14:40:00;;;;;;;4.50;4.10;;;;;;;;;;5042504;28;20187;-77
2023/07/04 14:42:26;;;;;;;4.37;3.90;;;;;;;;;;5023986;28;20188;-77
2023/07/04 14:44:53;;;;;;;6.00;4.47;;;;;;;;;;5043004;28;20197;-76
2023/07/04 14:47:21;;;;;;;4.87;4.07;;;;;;;;;;5043526;28;20738;-76
2023/07/04 14:49:47;;;;;;;7.50;4.70;;;;;;;;;;5045491;28;20189;-77